sensor_id;sensor_type;location;lat;lon;timestamp;temperature;humidity
2861;DHT22;1438;50.922;6.704;2023-09-19T00:01:06;15.60;99.90
2861;DHT22;1438;50.922;6.704;2023-09-19T00:03:35;15.60;99.90
2861;DHT22;1438;50.922;6.704;2023-09-19T00:06:04;15.60;99.90
2861;DHT22;1438;50.922;6.704;2023-09-19T00:08:30;15.60;99.90
2861;DHT22;1438;50.922;6.704;2023-09-19T00:10:57;15.50;99.90
2861;DHT22;1438;50.922;6.704;2023-09-19T00:13:31;15.60;99.90
2861;DHT22;1438;50.922;6.704;2023-09-19T00:15:57;15.50;99.90
2861;DHT22;1438;50.922;6.704;2023-09-19T00:18:24;15.50;99.90
2861;DHT22;1438;50.922;6.704;2023-09-19T00:20:57;15.50;99.90
2861;DHT22;1438;50.922;6.704;2023-09-19T00:23:23;15.50;99.90
2861;DHT22;1438;50.922;6.704;2023-09-19T00:25:50;15.60;99.90
2861;DHT22;1438;50.922;6.704;2023-09-19T00:28:17;15.60;99.90
2861;DHT22;1438;50.922;6.704;2023-09-19T00:30:44;15.60;99.90
2861;DHT22;1438;50.922;6.704;2023-09-19T00:33:10;15.50;99.90
2861;DHT22;1438;50.922;6.704;2023-09-19T00:35:50;15.50;99.90
2861;DHT22;1438;50.922;6.704;2023-09-19T00:38:16;15.60;99.90
2861;DHT22;1438;50.922;6.704;2023-09-19T00:40:46;15.50;99.90
2861;DHT22;1438;50.922;6.704;2023-09-19T00:43:12;15.50;99.90
2861;DHT22;1438;50.922;6.704;2023-09-19T00:45:39;15.50;99.90
2861;DHT22;1438;50.922;6.704;2023-09-19T00:48:07;15.50;99.90
2861;DHT22;1438;50.922;6.704;2023-09-19T00:50:35;15.50;99.90
2861;DHT22;1438;50.922;6.704;2023-09-19T00:53:01;15.60;99.90
2861;DHT22;1438;50.922;6.704;2023-09-19T00:55:29;15.60;99.90
2861;DHT22;1438;50.922;6.704;2023-09-19T00:57:56;15.70;99.90
2861;DHT22;1438;50.922;6.704;2023-09-19T01:00:21;15.70;99.90
2861;DHT22;1438;50.922;6.704;2023-09-19T01:02:48;15.80;99.90
2861;DHT22;1438;50.922;6.704;2023-09-19T01:05:14;15.80;99.90
2861;DHT22;1438;50.922;6.704;2023-09-19T01:07:40;15.90;99.90
2861;DHT22;1438;50.922;6.704;2023-09-19T01:10:11;15.90;99.90
2861;DHT22;1438;50.922;6.704;2023-09-19T01:30:18;15.90;99.90
2861;DHT22;1438;50.922;6.704;2023-09-19T01:32:50;15.80;99.90
2861;DHT22;1438;50.922;6.704;2023-09-19T01:35:18;15.90;99.90
2861;DHT22;1438;50.922;6.704;2023-09-19T01:37:44;15.90;99.90
2861;DHT22;1438;50.922;6.704;2023-09-19T01:40:12;15.90;99.90
2861;DHT22;1438;50.922;6.704;2023-09-19T01:51:00;15.80;99.90
2861;DHT22;1438;50.922;6.704;2023-09-19T01:53:51;15.80;99.90
2861;DHT22;1438;50.922;6.704;2023-09-19T01:56:28;15.90;99.90
2861;DHT22;1438;50.922;6.704;2023-09-19T01:58:59;15.80;99.90
2861;DHT22;1438;50.922;6.704;2023-09-19T02:01:29;15.80;99.90
2861;DHT22;1438;50.922;6.704;2023-09-19T02:03:55;15.80;99.90
2861;DHT22;1438;50.922;6.704;2023-09-19T02:06:21;15.70;99.90
2861;DHT22;1438;50.922;6.704;2023-09-19T02:08:47;15.60;99.90
2861;DHT22;1438;50.922;6.704;2023-09-19T02:11:13;15.60;99.90
2861;DHT22;1438;50.922;6.704;2023-09-19T02:13:39;15.60;99.90
2861;DHT22;1438;50.922;6.704;2023-09-19T02:16:06;15.60;99.90
2861;DHT22;1438;50.922;6.704;2023-09-19T02:18:34;15.50;99.90
2861;DHT22;1438;50.922;6.704;2023-09-19T02:21:03;15.50;99.90
2861;DHT22;1438;50.922;6.704;2023-09-19T02:23:30;15.40;99.90
2861;DHT22;1438;50.922;6.704;2023-09-19T02:25:56;15.30;99.90
2861;DHT22;1438;50.922;6.704;2023-09-19T02:28:29;15.30;99.90
2861;DHT22;1438;50.922;6.704;2023-09-19T02:30:58;15.30;99.90
2861;DHT22;1438;50.922;6.704;2023-09-19T02:33:24;15.30;99.90
2861;DHT22;1438;50.922;6.704;2023-09-19T02:35:54;15.20;99.90
2861;DHT22;1438;50.922;6.704;2023-09-19T02:38:19;15.20;99.90
2861;DHT22;1438;50.922;6.704;2023-09-19T02:40:50;15.20;99.90
2861;DHT22;1438;50.922;6.704;2023-09-19T02:43:15;15.10;99.90
2861;DHT22;1438;50.922;6.704;2023-09-19T02:45:42;15.00;99.90
2861;DHT22;1438;50.922;6.704;2023-09-19T02:48:08;15.10;99.90
2861;DHT22;1438;50.922;6.704;2023-09-19T02:50:33;15.00;99.90
2861;DHT22;1438;50.922;6.704;2023-09-19T02:52:59;15.00;99.90
2861;DHT22;1438;50.922;6.704;2023-09-19T02:55:25;14.90;99.90
2861;DHT22;1438;50.922;6.704;2023-09-19T02:57:53;15.00;99.90
2861;DHT22;1438;50.922;6.704;2023-09-19T03:00:22;14.90;99.90
2861;DHT22;1438;50.922;6.704;2023-09-19T03:02:54;14.90;99.90
2861;DHT22;1438;50.922;6.704;2023-09-19T03:05:21;14.90;99.90
2861;DHT22;1438;50.922;6.704;2023-09-19T03:07:47;14.90;99.90
2861;DHT22;1438;50.922;6.704;2023-09-19T03:10:17;14.80;99.90
2861;DHT22;1438;50.922;6.704;2023-09-19T03:12:43;14.70;99.90
2861;DHT22;1438;50.922;6.704;2023-09-19T03:15:09;14.70;99.90
2861;DHT22;1438;50.922;6.704;2023-09-19T03:17:34;14.70;99.90
2861;DHT22;1438;50.922;6.704;2023-09-19T03:20:01;14.60;99.90
2861;DHT22;1438;50.922;6.704;2023-09-19T03:22:28;14.60;99.90
2861;DHT22;1438;50.922;6.704;2023-09-19T03:24:53;14.60;99.90
2861;DHT22;1438;50.922;6.704;2023-09-19T03:27:19;14.60;99.90
2861;DHT22;1438;50.922;6.704;2023-09-19T03:29:46;14.60;99.90
2861;DHT22;1438;50.922;6.704;2023-09-19T03:32:12;14.50;99.90
2861;DHT22;1438;50.922;6.704;2023-09-19T03:34:38;14.50;99.90
2861;DHT22;1438;50.922;6.704;2023-09-19T03:37:09;14.50;99.90
2861;DHT22;1438;50.922;6.704;2023-09-19T03:39:35;14.50;99.90
2861;DHT22;1438;50.922;6.704;2023-09-19T03:42:01;14.50;99.90
2861;DHT22;1438;50.922;6.704;2023-09-19T03:44:29;14.50;99.90
2861;DHT22;1438;50.922;6.704;2023-09-19T03:46:55;14.40;99.90
2861;DHT22;1438;50.922;6.704;2023-09-19T03:49:22;14.40;99.90
2861;DHT22;1438;50.922;6.704;2023-09-19T03:51:47;14.30;99.90
2861;DHT22;1438;50.922;6.704;2023-09-19T03:54:13;14.20;99.90
2861;DHT22;1438;50.922;6.704;2023-09-19T03:56:38;14.10;99.90
2861;DHT22;1438;50.922;6.704;2023-09-19T03:59:04;14.30;99.90
2861;DHT22;1438;50.922;6.704;2023-09-19T04:01:30;14.30;99.90
2861;DHT22;1438;50.922;6.704;2023-09-19T04:03:58;14.30;99.90
2861;DHT22;1438;50.922;6.704;2023-09-19T04:06:24;14.20;99.90
2861;DHT22;1438;50.922;6.704;2023-09-19T04:08:49;14.20;99.90
2861;DHT22;1438;50.922;6.704;2023-09-19T04:11:15;14.20;99.90
2861;DHT22;1438;50.922;6.704;2023-09-19T04:13:40;14.30;99.90
2861;DHT22;1438;50.922;6.704;2023-09-19T04:16:06;14.20;99.90
2861;DHT22;1438;50.922;6.704;2023-09-19T04:18:34;14.20;99.90
2861;DHT22;1438;50.922;6.704;2023-09-19T04:21:03;14.30;99.90
2861;DHT22;1438;50.922;6.704;2023-09-19T04:23:31;14.20;99.90
2861;DHT22;1438;50.922;6.704;2023-09-19T04:25:57;14.30;99.90
2861;DHT22;1438;50.922;6.704;2023-09-19T04:28:23;14.20;99.90
2861;DHT22;1438;50.922;6.704;2023-09-19T04:30:49;14.20;99.90
2861;DHT22;1438;50.922;6.704;2023-09-19T04:33:15;14.20;99.90
2861;DHT22;1438;50.922;6.704;2023-09-19T04:35:41;14.30;99.90
2861;DHT22;1438;50.922;6.704;2023-09-19T04:38:08;14.30;99.90
2861;DHT22;1438;50.922;6.704;2023-09-19T04:40:34;14.30;99.90
2861;DHT22;1438;50.922;6.704;2023-09-19T04:43:00;14.20;99.90
2861;DHT22;1438;50.922;6.704;2023-09-19T04:45:26;14.20;99.90
2861;DHT22;1438;50.922;6.704;2023-09-19T04:47:52;14.10;99.90
2861;DHT22;1438;50.922;6.704;2023-09-19T04:50:18;14.20;99.90
2861;DHT22;1438;50.922;6.704;2023-09-19T04:52:44;14.10;99.90
2861;DHT22;1438;50.922;6.704;2023-09-19T04:55:12;14.10;99.90
2861;DHT22;1438;50.922;6.704;2023-09-19T04:57:42;14.10;99.90
2861;DHT22;1438;50.922;6.704;2023-09-19T05:00:08;14.10;99.90
2861;DHT22;1438;50.922;6.704;2023-09-19T05:02:39;14.00;99.90
2861;DHT22;1438;50.922;6.704;2023-09-19T05:05:07;13.90;99.90
2861;DHT22;1438;50.922;6.704;2023-09-19T05:07:33;14.00;99.90
2861;DHT22;1438;50.922;6.704;2023-09-19T05:09:59;14.00;99.90
2861;DHT22;1438;50.922;6.704;2023-09-19T05:12:26;14.00;99.90
2861;DHT22;1438;50.922;6.704;2023-09-19T05:14:52;14.00;99.90
2861;DHT22;1438;50.922;6.704;2023-09-19T05:17:18;13.90;99.90
2861;DHT22;1438;50.922;6.704;2023-09-19T05:19:44;13.90;99.90
2861;DHT22;1438;50.922;6.704;2023-09-19T05:22:11;13.90;99.90
2861;DHT22;1438;50.922;6.704;2023-09-19T05:24:37;13.90;99.90
2861;DHT22;1438;50.922;6.704;2023-09-19T05:27:04;13.80;99.90
2861;DHT22;1438;50.922;6.704;2023-09-19T05:29:30;13.80;99.90
2861;DHT22;1438;50.922;6.704;2023-09-19T05:31:55;13.90;99.90
2861;DHT22;1438;50.922;6.704;2023-09-19T05:34:21;13.90;99.90
2861;DHT22;1438;50.922;6.704;2023-09-19T05:36:46;13.90;99.90
2861;DHT22;1438;50.922;6.704;2023-09-19T05:39:14;14.00;99.90
2861;DHT22;1438;50.922;6.704;2023-09-19T05:41:39;14.00;99.90
2861;DHT22;1438;50.922;6.704;2023-09-19T05:44:05;14.00;99.90
2861;DHT22;1438;50.922;6.704;2023-09-19T05:46:32;14.00;99.90
2861;DHT22;1438;50.922;6.704;2023-09-19T05:48:58;14.00;99.90
2861;DHT22;1438;50.922;6.704;2023-09-19T05:51:24;14.10;99.90
2861;DHT22;1438;50.922;6.704;2023-09-19T05:53:50;14.10;99.90
2861;DHT22;1438;50.922;6.704;2023-09-19T05:56:16;14.10;99.90
2861;DHT22;1438;50.922;6.704;2023-09-19T05:58:44;14.10;99.90
2861;DHT22;1438;50.922;6.704;2023-09-19T06:01:10;14.10;99.90
2861;DHT22;1438;50.922;6.704;2023-09-19T06:03:35;14.10;99.90
2861;DHT22;1438;50.922;6.704;2023-09-19T06:06:02;14.10;99.90
2861;DHT22;1438;50.922;6.704;2023-09-19T06:08:27;14.10;99.90
2861;DHT22;1438;50.922;6.704;2023-09-19T06:10:54;14.20;99.90
2861;DHT22;1438;50.922;6.704;2023-09-19T06:13:19;14.20;99.90
2861;DHT22;1438;50.922;6.704;2023-09-19T06:15:45;14.20;99.90
2861;DHT22;1438;50.922;6.704;2023-09-19T06:18:12;14.20;99.90
2861;DHT22;1438;50.922;6.704;2023-09-19T06:20:48;14.30;99.90
2861;DHT22;1438;50.922;6.704;2023-09-19T06:23:16;14.30;99.90
2861;DHT22;1438;50.922;6.704;2023-09-19T06:25:43;14.30;99.90
2861;DHT22;1438;50.922;6.704;2023-09-19T06:28:11;14.30;99.90
2861;DHT22;1438;50.922;6.704;2023-09-19T06:30:42;14.30;99.90
2861;DHT22;1438;50.922;6.704;2023-09-19T06:33:08;14.40;99.90
2861;DHT22;1438;50.922;6.704;2023-09-19T06:35:34;14.40;99.90
2861;DHT22;1438;50.922;6.704;2023-09-19T06:38:03;14.40;99.90
2861;DHT22;1438;50.922;6.704;2023-09-19T06:40:29;14.50;99.90
2861;DHT22;1438;50.922;6.704;2023-09-19T06:42:56;14.60;99.90
2861;DHT22;1438;50.922;6.704;2023-09-19T06:45:22;14.60;99.90
2861;DHT22;1438;50.922;6.704;2023-09-19T06:47:49;14.70;99.90
2861;DHT22;1438;50.922;6.704;2023-09-19T06:50:19;14.70;99.90
2861;DHT22;1438;50.922;6.704;2023-09-19T06:52:46;14.80;99.90
2861;DHT22;1438;50.922;6.704;2023-09-19T06:55:16;14.80;99.90
2861;DHT22;1438;50.922;6.704;2023-09-19T06:57:44;14.90;99.90
2861;DHT22;1438;50.922;6.704;2023-09-19T07:00:11;14.90;99.90
2861;DHT22;1438;50.922;6.704;2023-09-19T07:03:03;15.00;99.90
2861;DHT22;1438;50.922;6.704;2023-09-19T07:05:30;15.00;99.90
2861;DHT22;1438;50.922;6.704;2023-09-19T07:07:57;15.00;99.90
2861;DHT22;1438;50.922;6.704;2023-09-19T07:10:26;15.10;99.90
2861;DHT22;1438;50.922;6.704;2023-09-19T07:15:25;15.20;99.90
2861;DHT22;1438;50.922;6.704;2023-09-19T07:17:52;15.30;99.90
2861;DHT22;1438;50.922;6.704;2023-09-19T07:20:22;15.30;99.90
2861;DHT22;1438;50.922;6.704;2023-09-19T07:22:49;15.40;99.90
2861;DHT22;1438;50.922;6.704;2023-09-19T07:25:16;15.40;99.90
2861;DHT22;1438;50.922;6.704;2023-09-19T07:27:42;15.40;99.90
2861;DHT22;1438;50.922;6.704;2023-09-19T07:30:08;15.50;99.90
2861;DHT22;1438;50.922;6.704;2023-09-19T07:32:34;15.50;99.90
2861;DHT22;1438;50.922;6.704;2023-09-19T07:35:04;15.60;99.90
2861;DHT22;1438;50.922;6.704;2023-09-19T07:37:31;15.70;99.90
2861;DHT22;1438;50.922;6.704;2023-09-19T07:39:59;15.80;99.90
2861;DHT22;1438;50.922;6.704;2023-09-19T07:42:25;15.80;99.90
2861;DHT22;1438;50.922;6.704;2023-09-19T07:44:51;15.80;99.90
2861;DHT22;1438;50.922;6.704;2023-09-19T07:47:17;15.90;99.90
2861;DHT22;1438;50.922;6.704;2023-09-19T07:49:42;15.90;99.90
2861;DHT22;1438;50.922;6.704;2023-09-19T07:52:13;16.10;99.90
2861;DHT22;1438;50.922;6.704;2023-09-19T07:54:39;16.10;99.90
2861;DHT22;1438;50.922;6.704;2023-09-19T07:57:06;16.20;99.90
2861;DHT22;1438;50.922;6.704;2023-09-19T07:59:35;16.20;99.90
2861;DHT22;1438;50.922;6.704;2023-09-19T08:02:01;16.30;99.90
2861;DHT22;1438;50.922;6.704;2023-09-19T08:04:30;16.30;99.90
2861;DHT22;1438;50.922;6.704;2023-09-19T08:06:59;16.30;99.90
2861;DHT22;1438;50.922;6.704;2023-09-19T08:09:28;16.50;99.90
2861;DHT22;1438;50.922;6.704;2023-09-19T08:11:58;16.50;99.90
2861;DHT22;1438;50.922;6.704;2023-09-19T08:14:24;16.60;99.90
2861;DHT22;1438;50.922;6.704;2023-09-19T08:16:53;16.60;99.90
2861;DHT22;1438;50.922;6.704;2023-09-19T08:19:29;16.70;99.90
2861;DHT22;1438;50.922;6.704;2023-09-19T08:21:57;16.70;99.90
2861;DHT22;1438;50.922;6.704;2023-09-19T08:24:30;16.60;99.90
2861;DHT22;1438;50.922;6.704;2023-09-19T08:26:56;16.80;99.90
2861;DHT22;1438;50.922;6.704;2023-09-19T08:29:23;16.90;99.90
2861;DHT22;1438;50.922;6.704;2023-09-19T08:31:58;17.10;99.90
2861;DHT22;1438;50.922;6.704;2023-09-19T08:34:24;17.20;99.90
2861;DHT22;1438;50.922;6.704;2023-09-19T08:36:51;17.20;99.90
2861;DHT22;1438;50.922;6.704;2023-09-19T08:39:18;17.20;99.90
2861;DHT22;1438;50.922;6.704;2023-09-19T08:41:44;17.40;99.90
2861;DHT22;1438;50.922;6.704;2023-09-19T08:44:10;17.60;99.90
2861;DHT22;1438;50.922;6.704;2023-09-19T08:46:40;17.60;99.90
2861;DHT22;1438;50.922;6.704;2023-09-19T08:52:52;17.80;99.90
2861;DHT22;1438;50.922;6.704;2023-09-19T08:55:24;17.90;99.90
2861;DHT22;1438;50.922;6.704;2023-09-19T08:58:00;18.30;99.90
2861;DHT22;1438;50.922;6.704;2023-09-19T09:00:28;18.50;99.90
2861;DHT22;1438;50.922;6.704;2023-09-19T09:02:56;18.60;99.90
2861;DHT22;1438;50.922;6.704;2023-09-19T09:05:24;18.40;99.90
2861;DHT22;1438;50.922;6.704;2023-09-19T09:07:50;18.60;99.90
2861;DHT22;1438;50.922;6.704;2023-09-19T09:10:22;18.60;99.90
2861;DHT22;1438;50.922;6.704;2023-09-19T09:12:52;18.70;99.90
2861;DHT22;1438;50.922;6.704;2023-09-19T09:15:21;18.70;99.90
2861;DHT22;1438;50.922;6.704;2023-09-19T09:17:49;18.80;99.90
2861;DHT22;1438;50.922;6.704;2023-09-19T09:20:17;18.80;99.90
2861;DHT22;1438;50.922;6.704;2023-09-19T09:22:54;18.80;99.90
2861;DHT22;1438;50.922;6.704;2023-09-19T09:25:22;19.20;99.90
2861;DHT22;1438;50.922;6.704;2023-09-19T09:28:01;19.20;99.90
2861;DHT22;1438;50.922;6.704;2023-09-19T09:30:34;19.10;99.90
2861;DHT22;1438;50.922;6.704;2023-09-19T09:33:14;19.20;99.90
2861;DHT22;1438;50.922;6.704;2023-09-19T09:35:53;19.60;99.90
2861;DHT22;1438;50.922;6.704;2023-09-19T09:38:22;19.60;99.90
2861;DHT22;1438;50.922;6.704;2023-09-19T09:40:56;19.60;99.90
2861;DHT22;1438;50.922;6.704;2023-09-19T09:43:36;19.40;99.90
2861;DHT22;1438;50.922;6.704;2023-09-19T09:46:28;19.60;99.90
2861;DHT22;1438;50.922;6.704;2023-09-19T09:51:45;19.80;99.90
2861;DHT22;1438;50.922;6.704;2023-09-19T09:54:18;19.60;99.90
2861;DHT22;1438;50.922;6.704;2023-09-19T09:56:58;19.60;99.90
2861;DHT22;1438;50.922;6.704;2023-09-19T10:02:20;20.20;99.90
2861;DHT22;1438;50.922;6.704;2023-09-19T10:04:56;20.20;99.90
2861;DHT22;1438;50.922;6.704;2023-09-19T10:07:37;20.40;99.90
2861;DHT22;1438;50.922;6.704;2023-09-19T10:10:07;20.60;99.90
2861;DHT22;1438;50.922;6.704;2023-09-19T10:12:46;20.70;99.90
2861;DHT22;1438;50.922;6.704;2023-09-19T10:15:17;20.90;99.90
2861;DHT22;1438;50.922;6.704;2023-09-19T10:17:44;20.90;99.90
2861;DHT22;1438;50.922;6.704;2023-09-19T10:20:13;20.80;99.90
2861;DHT22;1438;50.922;6.704;2023-09-19T10:23:00;20.80;99.90
2861;DHT22;1438;50.922;6.704;2023-09-19T10:25:27;20.90;99.90
2861;DHT22;1438;50.922;6.704;2023-09-19T10:28:16;21.10;99.90
2861;DHT22;1438;50.922;6.704;2023-09-19T10:30:48;21.30;99.90
2861;DHT22;1438;50.922;6.704;2023-09-19T10:33:17;21.80;99.90
2861;DHT22;1438;50.922;6.704;2023-09-19T10:35:46;21.20;99.90
2861;DHT22;1438;50.922;6.704;2023-09-19T10:38:13;21.00;99.90
2861;DHT22;1438;50.922;6.704;2023-09-19T10:40:44;21.40;99.90
2861;DHT22;1438;50.922;6.704;2023-09-19T10:43:16;21.40;99.90
2861;DHT22;1438;50.922;6.704;2023-09-19T10:45:45;21.40;99.90
2861;DHT22;1438;50.922;6.704;2023-09-19T10:48:15;21.40;99.90
2861;DHT22;1438;50.922;6.704;2023-09-19T10:50:48;21.40;99.90
2861;DHT22;1438;50.922;6.704;2023-09-19T10:53:16;21.20;99.90
2861;DHT22;1438;50.922;6.704;2023-09-19T10:55:49;21.20;99.90
2861;DHT22;1438;50.922;6.704;2023-09-19T10:58:28;20.90;99.90
2861;DHT22;1438;50.922;6.704;2023-09-19T11:03:22;20.80;99.90
2861;DHT22;1438;50.922;6.704;2023-09-19T11:06:05;21.10;99.90
2861;DHT22;1438;50.922;6.704;2023-09-19T11:11:48;20.90;99.90
2861;DHT22;1438;50.922;6.704;2023-09-19T11:30:42;21.40;99.90
2861;DHT22;1438;50.922;6.704;2023-09-19T11:33:31;21.70;99.90
2861;DHT22;1438;50.922;6.704;2023-09-19T11:43:46;21.40;99.90
2861;DHT22;1438;50.922;6.704;2023-09-19T11:46:16;21.20;99.90
2861;DHT22;1438;50.922;6.704;2023-09-19T11:48:48;21.20;99.90
2861;DHT22;1438;50.922;6.704;2023-09-19T11:51:18;21.40;99.90
2861;DHT22;1438;50.922;6.704;2023-09-19T11:53:58;21.60;99.90
2861;DHT22;1438;50.922;6.704;2023-09-19T11:56:28;21.70;99.90
2861;DHT22;1438;50.922;6.704;2023-09-19T11:58:55;21.60;99.90
2861;DHT22;1438;50.922;6.704;2023-09-19T12:01:31;22.00;99.90
2861;DHT22;1438;50.922;6.704;2023-09-19T12:03:59;22.00;99.90
2861;DHT22;1438;50.922;6.704;2023-09-19T12:06:26;22.10;99.90
2861;DHT22;1438;50.922;6.704;2023-09-19T12:08:52;21.90;99.90
2861;DHT22;1438;50.922;6.704;2023-09-19T12:11:21;21.90;99.90
2861;DHT22;1438;50.922;6.704;2023-09-19T12:13:49;21.90;99.90
2861;DHT22;1438;50.922;6.704;2023-09-19T12:16:16;22.20;99.90
2861;DHT22;1438;50.922;6.704;2023-09-19T12:18:43;22.30;99.90
2861;DHT22;1438;50.922;6.704;2023-09-19T12:21:23;22.90;99.90
2861;DHT22;1438;50.922;6.704;2023-09-19T12:26:27;22.80;99.90
2861;DHT22;1438;50.922;6.704;2023-09-19T12:28:55;23.40;99.90
2861;DHT22;1438;50.922;6.704;2023-09-19T12:31:21;23.50;99.90
2861;DHT22;1438;50.922;6.704;2023-09-19T12:33:53;23.60;99.90
2861;DHT22;1438;50.922;6.704;2023-09-19T12:36:23;23.50;99.90
2861;DHT22;1438;50.922;6.704;2023-09-19T12:38:58;23.30;99.90
2861;DHT22;1438;50.922;6.704;2023-09-19T12:41:24;23.40;99.90
2861;DHT22;1438;50.922;6.704;2023-09-19T12:43:52;23.40;99.90
2861;DHT22;1438;50.922;6.704;2023-09-19T12:46:22;23.40;99.90
2861;DHT22;1438;50.922;6.704;2023-09-19T12:49:19;23.90;99.90
2861;DHT22;1438;50.922;6.704;2023-09-19T12:51:48;23.80;99.90
2861;DHT22;1438;50.922;6.704;2023-09-19T12:54:14;24.20;99.90
2861;DHT22;1438;50.922;6.704;2023-09-19T12:56:45;23.70;99.90
2861;DHT22;1438;50.922;6.704;2023-09-19T12:59:13;23.70;99.90
2861;DHT22;1438;50.922;6.704;2023-09-19T13:01:42;23.80;99.90
2861;DHT22;1438;50.922;6.704;2023-09-19T13:04:16;23.50;99.90
2861;DHT22;1438;50.922;6.704;2023-09-19T13:06:52;23.50;99.90
2861;DHT22;1438;50.922;6.704;2023-09-19T13:09:20;22.80;99.90
2861;DHT22;1438;50.922;6.704;2023-09-19T13:11:46;22.90;99.90
2861;DHT22;1438;50.922;6.704;2023-09-19T13:14:28;23.70;99.90
2861;DHT22;1438;50.922;6.704;2023-09-19T13:17:02;23.70;99.90
2861;DHT22;1438;50.922;6.704;2023-09-19T13:19:50;23.60;99.90
2861;DHT22;1438;50.922;6.704;2023-09-19T13:25:18;23.60;99.90
2861;DHT22;1438;50.922;6.704;2023-09-19T13:30:14;23.50;99.90
2861;DHT22;1438;50.922;6.704;2023-09-19T13:32:40;23.30;99.90
2861;DHT22;1438;50.922;6.704;2023-09-19T13:35:08;22.70;99.90
2861;DHT22;1438;50.922;6.704;2023-09-19T13:37:38;23.40;99.90
2861;DHT22;1438;50.922;6.704;2023-09-19T13:40:14;23.50;99.90
2861;DHT22;1438;50.922;6.704;2023-09-19T13:42:41;23.60;99.90
2861;DHT22;1438;50.922;6.704;2023-09-19T13:45:07;23.90;99.90
2861;DHT22;1438;50.922;6.704;2023-09-19T13:47:33;23.80;99.90
2861;DHT22;1438;50.922;6.704;2023-09-19T13:50:01;23.80;99.90
2861;DHT22;1438;50.922;6.704;2023-09-19T13:52:27;23.30;99.90
2861;DHT22;1438;50.922;6.704;2023-09-19T13:54:56;23.20;99.90
2861;DHT22;1438;50.922;6.704;2023-09-19T13:57:23;23.30;99.90
2861;DHT22;1438;50.922;6.704;2023-09-19T13:59:49;23.00;99.90
2861;DHT22;1438;50.922;6.704;2023-09-19T14:02:14;22.50;99.90
2861;DHT22;1438;50.922;6.704;2023-09-19T14:04:40;22.30;99.90
2861;DHT22;1438;50.922;6.704;2023-09-19T14:07:06;21.70;99.90
2861;DHT22;1438;50.922;6.704;2023-09-19T14:09:33;21.50;99.90
2861;DHT22;1438;50.922;6.704;2023-09-19T14:11:59;21.60;99.90
2861;DHT22;1438;50.922;6.704;2023-09-19T14:14:25;21.90;99.90
2861;DHT22;1438;50.922;6.704;2023-09-19T14:16:50;22.40;99.90
2861;DHT22;1438;50.922;6.704;2023-09-19T14:19:18;22.30;99.90
2861;DHT22;1438;50.922;6.704;2023-09-19T14:21:44;22.00;99.90
2861;DHT22;1438;50.922;6.704;2023-09-19T14:24:10;22.00;99.90
2861;DHT22;1438;50.922;6.704;2023-09-19T14:26:37;21.80;99.90
2861;DHT22;1438;50.922;6.704;2023-09-19T14:29:03;21.70;99.90
2861;DHT22;1438;50.922;6.704;2023-09-19T14:31:29;21.80;99.90
2861;DHT22;1438;50.922;6.704;2023-09-19T14:33:55;21.90;99.90
2861;DHT22;1438;50.922;6.704;2023-09-19T14:36:25;22.30;99.90
2861;DHT22;1438;50.922;6.704;2023-09-19T14:38:54;22.40;99.90
2861;DHT22;1438;50.922;6.704;2023-09-19T14:41:20;22.70;99.90
2861;DHT22;1438;50.922;6.704;2023-09-19T14:43:46;22.70;99.90
2861;DHT22;1438;50.922;6.704;2023-09-19T14:46:12;22.80;99.90
2861;DHT22;1438;50.922;6.704;2023-09-19T14:48:37;23.00;99.90
2861;DHT22;1438;50.922;6.704;2023-09-19T14:51:05;23.10;99.90
2861;DHT22;1438;50.922;6.704;2023-09-19T14:53:31;22.70;99.90
2861;DHT22;1438;50.922;6.704;2023-09-19T14:56:00;22.80;99.90
2861;DHT22;1438;50.922;6.704;2023-09-19T14:58:28;22.50;99.90
2861;DHT22;1438;50.922;6.704;2023-09-19T15:01:11;22.00;99.90
2861;DHT22;1438;50.922;6.704;2023-09-19T15:03:37;21.90;99.90
2861;DHT22;1438;50.922;6.704;2023-09-19T15:06:06;21.80;99.90
2861;DHT22;1438;50.922;6.704;2023-09-19T15:08:36;21.60;99.90
2861;DHT22;1438;50.922;6.704;2023-09-19T15:11:09;21.50;99.90
2861;DHT22;1438;50.922;6.704;2023-09-19T15:13:36;21.30;99.90
2861;DHT22;1438;50.922;6.704;2023-09-19T15:16:03;21.20;99.90
2861;DHT22;1438;50.922;6.704;2023-09-19T15:18:29;21.20;99.90
2861;DHT22;1438;50.922;6.704;2023-09-19T15:21:02;21.30;99.90
2861;DHT22;1438;50.922;6.704;2023-09-19T15:23:30;21.20;99.90
2861;DHT22;1438;50.922;6.704;2023-09-19T15:25:56;21.20;99.90
2861;DHT22;1438;50.922;6.704;2023-09-19T15:28:22;21.20;99.90
2861;DHT22;1438;50.922;6.704;2023-09-19T15:30:49;21.00;99.90
2861;DHT22;1438;50.922;6.704;2023-09-19T15:33:15;21.00;99.90
2861;DHT22;1438;50.922;6.704;2023-09-19T15:35:41;20.90;99.90
2861;DHT22;1438;50.922;6.704;2023-09-19T15:38:07;20.80;99.90
2861;DHT22;1438;50.922;6.704;2023-09-19T15:40:33;20.70;99.90
2861;DHT22;1438;50.922;6.704;2023-09-19T15:42:59;20.70;99.90
2861;DHT22;1438;50.922;6.704;2023-09-19T15:45:25;20.70;99.90
2861;DHT22;1438;50.922;6.704;2023-09-19T15:47:51;20.60;99.90
2861;DHT22;1438;50.922;6.704;2023-09-19T15:50:17;20.60;99.90
2861;DHT22;1438;50.922;6.704;2023-09-19T15:52:43;20.60;99.90
2861;DHT22;1438;50.922;6.704;2023-09-19T15:55:09;20.60;99.90
2861;DHT22;1438;50.922;6.704;2023-09-19T15:57:38;20.70;99.90
2861;DHT22;1438;50.922;6.704;2023-09-19T16:00:06;20.90;99.90
2861;DHT22;1438;50.922;6.704;2023-09-19T16:02:38;20.90;99.90
2861;DHT22;1438;50.922;6.704;2023-09-19T16:05:04;20.80;99.90
2861;DHT22;1438;50.922;6.704;2023-09-19T16:07:31;20.80;99.90
2861;DHT22;1438;50.922;6.704;2023-09-19T16:09:57;20.70;99.90
2861;DHT22;1438;50.922;6.704;2023-09-19T16:12:24;20.70;99.90
2861;DHT22;1438;50.922;6.704;2023-09-19T16:14:50;20.50;99.90
2861;DHT22;1438;50.922;6.704;2023-09-19T16:17:15;20.40;99.90
2861;DHT22;1438;50.922;6.704;2023-09-19T16:19:41;20.40;99.90
2861;DHT22;1438;50.922;6.704;2023-09-19T16:22:09;20.30;99.90
2861;DHT22;1438;50.922;6.704;2023-09-19T16:24:35;20.40;99.90
2861;DHT22;1438;50.922;6.704;2023-09-19T16:27:00;20.40;99.90
2861;DHT22;1438;50.922;6.704;2023-09-19T16:29:26;20.40;99.90
2861;DHT22;1438;50.922;6.704;2023-09-19T16:31:52;20.30;99.90
2861;DHT22;1438;50.922;6.704;2023-09-19T16:34:18;20.30;99.90
2861;DHT22;1438;50.922;6.704;2023-09-19T16:36:46;20.30;99.90
2861;DHT22;1438;50.922;6.704;2023-09-19T16:39:12;20.30;99.90
2861;DHT22;1438;50.922;6.704;2023-09-19T16:41:37;20.40;99.90
2861;DHT22;1438;50.922;6.704;2023-09-19T16:44:03;20.50;99.90
2861;DHT22;1438;50.922;6.704;2023-09-19T16:46:33;20.50;99.90
2861;DHT22;1438;50.922;6.704;2023-09-19T16:48:59;20.50;99.90
2861;DHT22;1438;50.922;6.704;2023-09-19T16:51:25;20.40;99.90
2861;DHT22;1438;50.922;6.704;2023-09-19T16:53:51;20.40;99.90
2861;DHT22;1438;50.922;6.704;2023-09-19T16:56:18;20.30;99.90
2861;DHT22;1438;50.922;6.704;2023-09-19T16:58:48;20.00;99.90
2861;DHT22;1438;50.922;6.704;2023-09-19T17:01:16;20.00;99.90
2861;DHT22;1438;50.922;6.704;2023-09-19T17:03:44;19.80;99.90
2861;DHT22;1438;50.922;6.704;2023-09-19T17:06:12;19.70;99.90
2861;DHT22;1438;50.922;6.704;2023-09-19T17:08:39;19.70;99.90
2861;DHT22;1438;50.922;6.704;2023-09-19T17:11:09;19.60;99.90
2861;DHT22;1438;50.922;6.704;2023-09-19T17:13:39;19.50;99.90
2861;DHT22;1438;50.922;6.704;2023-09-19T17:16:11;19.50;99.90
2861;DHT22;1438;50.922;6.704;2023-09-19T17:18:38;19.40;99.90
2861;DHT22;1438;50.922;6.704;2023-09-19T17:21:05;19.40;99.90
2861;DHT22;1438;50.922;6.704;2023-09-19T17:23:36;19.40;99.90
2861;DHT22;1438;50.922;6.704;2023-09-19T17:26:12;19.30;99.90